sensor_id;sensor_type;location;lat;lon;timestamp;temperature;humidity
63313;DHT22;49442;45.640;13.812;2023-05-17T00:02:17;13.70;99.90
63313;DHT22;49442;45.640;13.812;2023-05-17T00:04:43;13.60;99.90
63313;DHT22;49442;45.640;13.812;2023-05-17T00:07:12;13.60;99.90
63313;DHT22;49442;45.640;13.812;2023-05-17T00:09:37;13.60;99.90
63313;DHT22;49442;45.640;13.812;2023-05-17T00:12:03;13.50;99.90
63313;DHT22;49442;45.640;13.812;2023-05-17T00:14:29;13.40;99.90
63313;DHT22;49442;45.640;13.812;2023-05-17T00:16:55;13.40;99.90
63313;DHT22;49442;45.640;13.812;2023-05-17T00:19:20;13.40;99.90
63313;DHT22;49442;45.640;13.812;2023-05-17T00:21:46;13.40;99.90
63313;DHT22;49442;45.640;13.812;2023-05-17T00:24:12;13.30;99.90
63313;DHT22;49442;45.640;13.812;2023-05-17T00:26:37;13.20;99.90
63313;DHT22;49442;45.640;13.812;2023-05-17T00:29:03;13.20;99.90
63313;DHT22;49442;45.640;13.812;2023-05-17T00:31:29;13.10;99.90
63313;DHT22;49442;45.640;13.812;2023-05-17T00:33:54;13.20;99.90
63313;DHT22;49442;45.640;13.812;2023-05-17T00:36:20;13.20;99.90
63313;DHT22;49442;45.640;13.812;2023-05-17T00:38:46;13.10;99.90
63313;DHT22;49442;45.640;13.812;2023-05-17T00:41:11;13.20;99.90
63313;DHT22;49442;45.640;13.812;2023-05-17T00:43:38;13.20;99.90
63313;DHT22;49442;45.640;13.812;2023-05-17T00:46:04;13.30;99.90
63313;DHT22;49442;45.640;13.812;2023-05-17T00:48:30;13.30;99.90
63313;DHT22;49442;45.640;13.812;2023-05-17T00:50:57;13.30;99.90
63313;DHT22;49442;45.640;13.812;2023-05-17T00:53:23;13.30;99.90
63313;DHT22;49442;45.640;13.812;2023-05-17T00:55:49;13.30;99.90
63313;DHT22;49442;45.640;13.812;2023-05-17T00:58:15;13.30;99.90
63313;DHT22;49442;45.640;13.812;2023-05-17T01:00:41;13.30;99.90
63313;DHT22;49442;45.640;13.812;2023-05-17T01:03:07;13.30;99.90
63313;DHT22;49442;45.640;13.812;2023-05-17T01:05:33;13.30;99.90
63313;DHT22;49442;45.640;13.812;2023-05-17T01:07:59;13.20;99.90
63313;DHT22;49442;45.640;13.812;2023-05-17T01:10:48;13.10;99.90
63313;DHT22;49442;45.640;13.812;2023-05-17T01:13:42;13.20;99.90
63313;DHT22;49442;45.640;13.812;2023-05-17T01:16:21;13.20;99.90
63313;DHT22;49442;45.640;13.812;2023-05-17T01:19:01;13.20;99.90
63313;DHT22;49442;45.640;13.812;2023-05-17T01:22:14;13.20;99.90
63313;DHT22;49442;45.640;13.812;2023-05-17T01:27:48;13.20;99.90
63313;DHT22;49442;45.640;13.812;2023-05-17T01:30:15;13.30;99.90
63313;DHT22;49442;45.640;13.812;2023-05-17T01:32:42;13.30;99.90
63313;DHT22;49442;45.640;13.812;2023-05-17T01:35:10;13.30;99.90
63313;DHT22;49442;45.640;13.812;2023-05-17T01:37:37;13.40;99.90
63313;DHT22;49442;45.640;13.812;2023-05-17T01:40:04;13.40;99.90
63313;DHT22;49442;45.640;13.812;2023-05-17T01:42:32;13.40;99.90
63313;DHT22;49442;45.640;13.812;2023-05-17T01:45:36;13.40;99.90
63313;DHT22;49442;45.640;13.812;2023-05-17T01:50:37;13.40;99.90
63313;DHT22;49442;45.640;13.812;2023-05-17T01:53:08;13.40;99.90
63313;DHT22;49442;45.640;13.812;2023-05-17T01:55:56;13.40;99.90
63313;DHT22;49442;45.640;13.812;2023-05-17T01:58:25;13.40;99.90
63313;DHT22;49442;45.640;13.812;2023-05-17T02:00:54;13.40;99.90
63313;DHT22;49442;45.640;13.812;2023-05-17T02:03:20;13.40;99.90
63313;DHT22;49442;45.640;13.812;2023-05-17T02:05:46;13.50;99.90
63313;DHT22;49442;45.640;13.812;2023-05-17T02:08:12;13.40;99.90
63313;DHT22;49442;45.640;13.812;2023-05-17T02:10:38;13.40;99.90
63313;DHT22;49442;45.640;13.812;2023-05-17T02:13:04;13.40;99.90
63313;DHT22;49442;45.640;13.812;2023-05-17T02:15:30;13.40;99.90
63313;DHT22;49442;45.640;13.812;2023-05-17T02:17:56;13.40;99.90
63313;DHT22;49442;45.640;13.812;2023-05-17T02:20:22;13.40;99.90
63313;DHT22;49442;45.640;13.812;2023-05-17T02:22:47;13.40;99.90
63313;DHT22;49442;45.640;13.812;2023-05-17T02:25:13;13.40;99.90
63313;DHT22;49442;45.640;13.812;2023-05-17T02:27:39;13.50;99.90
63313;DHT22;49442;45.640;13.812;2023-05-17T02:30:05;13.50;99.90
63313;DHT22;49442;45.640;13.812;2023-05-17T02:32:32;13.50;99.90
63313;DHT22;49442;45.640;13.812;2023-05-17T02:34:58;13.50;99.90
63313;DHT22;49442;45.640;13.812;2023-05-17T02:37:23;13.50;99.90
63313;DHT22;49442;45.640;13.812;2023-05-17T02:39:49;13.50;99.90
63313;DHT22;49442;45.640;13.812;2023-05-17T02:42:15;13.50;99.90
63313;DHT22;49442;45.640;13.812;2023-05-17T02:44:41;13.60;99.90
63313;DHT22;49442;45.640;13.812;2023-05-17T02:47:07;13.60;99.90
63313;DHT22;49442;45.640;13.812;2023-05-17T02:49:32;13.60;99.90
63313;DHT22;49442;45.640;13.812;2023-05-17T02:51:58;13.60;99.90
63313;DHT22;49442;45.640;13.812;2023-05-17T02:54:25;13.70;99.90
63313;DHT22;49442;45.640;13.812;2023-05-17T02:56:51;13.70;99.90
63313;DHT22;49442;45.640;13.812;2023-05-17T02:59:16;13.70;99.90
63313;DHT22;49442;45.640;13.812;2023-05-17T03:01:42;13.80;99.90
63313;DHT22;49442;45.640;13.812;2023-05-17T03:04:08;13.80;99.90
63313;DHT22;49442;45.640;13.812;2023-05-17T03:06:34;13.80;99.90
63313;DHT22;49442;45.640;13.812;2023-05-17T03:08:59;13.80;99.90
63313;DHT22;49442;45.640;13.812;2023-05-17T03:11:25;13.80;99.90
63313;DHT22;49442;45.640;13.812;2023-05-17T03:13:51;13.80;99.90
63313;DHT22;49442;45.640;13.812;2023-05-17T03:16:17;13.80;99.90
63313;DHT22;49442;45.640;13.812;2023-05-17T03:18:43;13.90;99.90
63313;DHT22;49442;45.640;13.812;2023-05-17T03:21:09;14.00;99.90
63313;DHT22;49442;45.640;13.812;2023-05-17T03:23:35;14.00;99.90
63313;DHT22;49442;45.640;13.812;2023-05-17T03:26:00;13.90;99.90
63313;DHT22;49442;45.640;13.812;2023-05-17T03:28:26;13.90;99.90
63313;DHT22;49442;45.640;13.812;2023-05-17T03:30:52;13.90;99.90
63313;DHT22;49442;45.640;13.812;2023-05-17T03:33:18;14.00;99.90
63313;DHT22;49442;45.640;13.812;2023-05-17T03:35:44;14.00;99.90
63313;DHT22;49442;45.640;13.812;2023-05-17T03:38:12;14.00;99.90
63313;DHT22;49442;45.640;13.812;2023-05-17T03:40:38;13.90;99.90
63313;DHT22;49442;45.640;13.812;2023-05-17T03:43:05;14.00;99.90
63313;DHT22;49442;45.640;13.812;2023-05-17T03:45:31;14.00;99.90
63313;DHT22;49442;45.640;13.812;2023-05-17T03:47:57;14.00;99.90
63313;DHT22;49442;45.640;13.812;2023-05-17T03:50:23;14.00;99.90
63313;DHT22;49442;45.640;13.812;2023-05-17T03:52:48;14.00;99.90
63313;DHT22;49442;45.640;13.812;2023-05-17T03:55:14;14.00;99.90
63313;DHT22;49442;45.640;13.812;2023-05-17T03:57:40;14.00;99.90
63313;DHT22;49442;45.640;13.812;2023-05-17T04:00:06;14.00;99.90
63313;DHT22;49442;45.640;13.812;2023-05-17T04:02:35;14.00;99.90
63313;DHT22;49442;45.640;13.812;2023-05-17T04:05:00;14.00;99.90
63313;DHT22;49442;45.640;13.812;2023-05-17T04:07:27;14.00;99.90
63313;DHT22;49442;45.640;13.812;2023-05-17T04:09:55;14.10;99.90
63313;DHT22;49442;45.640;13.812;2023-05-17T04:12:24;14.10;99.90
63313;DHT22;49442;45.640;13.812;2023-05-17T04:14:49;14.10;99.90
63313;DHT22;49442;45.640;13.812;2023-05-17T04:17:15;14.10;99.90
63313;DHT22;49442;45.640;13.812;2023-05-17T04:19:41;14.10;99.90
63313;DHT22;49442;45.640;13.812;2023-05-17T04:22:06;14.10;99.90
63313;DHT22;49442;45.640;13.812;2023-05-17T04:24:32;14.10;99.90
63313;DHT22;49442;45.640;13.812;2023-05-17T04:26:58;14.10;99.90
63313;DHT22;49442;45.640;13.812;2023-05-17T04:29:24;14.10;99.90
63313;DHT22;49442;45.640;13.812;2023-05-17T04:31:49;14.10;99.90
63313;DHT22;49442;45.640;13.812;2023-05-17T04:34:15;14.10;99.90
63313;DHT22;49442;45.640;13.812;2023-05-17T04:36:41;14.10;99.90
63313;DHT22;49442;45.640;13.812;2023-05-17T04:39:06;14.20;99.90
63313;DHT22;49442;45.640;13.812;2023-05-17T04:41:32;14.20;99.90
63313;DHT22;49442;45.640;13.812;2023-05-17T04:43:58;14.20;99.90
63313;DHT22;49442;45.640;13.812;2023-05-17T04:46:23;14.30;99.90
63313;DHT22;49442;45.640;13.812;2023-05-17T04:48:50;14.30;99.90
63313;DHT22;49442;45.640;13.812;2023-05-17T04:51:15;14.30;99.90
63313;DHT22;49442;45.640;13.812;2023-05-17T04:53:41;14.30;99.90
63313;DHT22;49442;45.640;13.812;2023-05-17T04:56:06;14.30;99.90
63313;DHT22;49442;45.640;13.812;2023-05-17T04:58:32;14.40;99.90
63313;DHT22;49442;45.640;13.812;2023-05-17T05:00:58;14.50;99.90
63313;DHT22;49442;45.640;13.812;2023-05-17T05:03:23;14.50;99.90
63313;DHT22;49442;45.640;13.812;2023-05-17T05:05:50;14.60;99.90
63313;DHT22;49442;45.640;13.812;2023-05-17T05:08:16;14.60;99.90
63313;DHT22;49442;45.640;13.812;2023-05-17T05:10:42;14.70;99.90
63313;DHT22;49442;45.640;13.812;2023-05-17T05:13:07;14.70;99.90
63313;DHT22;49442;45.640;13.812;2023-05-17T05:15:33;14.70;99.90
63313;DHT22;49442;45.640;13.812;2023-05-17T05:17:59;14.70;99.90
63313;DHT22;49442;45.640;13.812;2023-05-17T05:20:24;14.70;99.90
63313;DHT22;49442;45.640;13.812;2023-05-17T05:22:50;14.70;99.90
63313;DHT22;49442;45.640;13.812;2023-05-17T05:25:16;14.60;99.90
63313;DHT22;49442;45.640;13.812;2023-05-17T05:27:42;14.60;99.90
63313;DHT22;49442;45.640;13.812;2023-05-17T05:30:08;14.60;99.90
63313;DHT22;49442;45.640;13.812;2023-05-17T05:32:34;14.70;99.90
63313;DHT22;49442;45.640;13.812;2023-05-17T05:35:03;14.70;99.90
63313;DHT22;49442;45.640;13.812;2023-05-17T05:37:30;14.70;99.90
63313;DHT22;49442;45.640;13.812;2023-05-17T05:39:56;14.70;99.90
63313;DHT22;49442;45.640;13.812;2023-05-17T05:42:21;14.80;99.90
63313;DHT22;49442;45.640;13.812;2023-05-17T05:44:47;14.80;99.90
63313;DHT22;49442;45.640;13.812;2023-05-17T05:47:13;14.90;99.90
63313;DHT22;49442;45.640;13.812;2023-05-17T05:49:38;14.90;99.90
63313;DHT22;49442;45.640;13.812;2023-05-17T05:52:04;14.90;99.90
63313;DHT22;49442;45.640;13.812;2023-05-17T05:54:30;14.90;99.90
63313;DHT22;49442;45.640;13.812;2023-05-17T05:56:57;14.90;99.90
63313;DHT22;49442;45.640;13.812;2023-05-17T05:59:23;14.90;99.90
63313;DHT22;49442;45.640;13.812;2023-05-17T06:01:49;14.90;99.90
63313;DHT22;49442;45.640;13.812;2023-05-17T06:04:14;14.90;99.90
63313;DHT22;49442;45.640;13.812;2023-05-17T06:06:40;15.00;99.90
63313;DHT22;49442;45.640;13.812;2023-05-17T06:09:06;14.90;99.90
63313;DHT22;49442;45.640;13.812;2023-05-17T06:11:32;14.90;99.90
63313;DHT22;49442;45.640;13.812;2023-05-17T06:13:57;15.00;99.90
63313;DHT22;49442;45.640;13.812;2023-05-17T06:16:23;15.10;99.90
63313;DHT22;49442;45.640;13.812;2023-05-17T06:18:49;15.10;99.90
63313;DHT22;49442;45.640;13.812;2023-05-17T06:21:14;15.10;99.90
63313;DHT22;49442;45.640;13.812;2023-05-17T06:23:41;15.10;99.90
63313;DHT22;49442;45.640;13.812;2023-05-17T06:26:07;15.00;99.90
63313;DHT22;49442;45.640;13.812;2023-05-17T06:28:35;15.00;99.90
63313;DHT22;49442;45.640;13.812;2023-05-17T06:31:01;15.00;99.90
63313;DHT22;49442;45.640;13.812;2023-05-17T06:33:26;15.00;99.90
63313;DHT22;49442;45.640;13.812;2023-05-17T06:35:53;15.00;99.90
63313;DHT22;49442;45.640;13.812;2023-05-17T06:38:19;15.10;99.90
63313;DHT22;49442;45.640;13.812;2023-05-17T06:40:44;15.10;99.90
63313;DHT22;49442;45.640;13.812;2023-05-17T06:43:10;15.10;99.90
63313;DHT22;49442;45.640;13.812;2023-05-17T06:45:36;15.10;99.90
63313;DHT22;49442;45.640;13.812;2023-05-17T06:48:01;15.10;99.90
63313;DHT22;49442;45.640;13.812;2023-05-17T06:50:27;15.10;99.90
63313;DHT22;49442;45.640;13.812;2023-05-17T06:52:53;15.10;99.90
63313;DHT22;49442;45.640;13.812;2023-05-17T06:55:19;15.10;99.90
63313;DHT22;49442;45.640;13.812;2023-05-17T06:57:45;15.10;99.90
63313;DHT22;49442;45.640;13.812;2023-05-17T07:00:11;15.20;99.90
63313;DHT22;49442;45.640;13.812;2023-05-17T07:02:37;15.20;99.90
63313;DHT22;49442;45.640;13.812;2023-05-17T07:05:04;15.30;99.90
63313;DHT22;49442;45.640;13.812;2023-05-17T07:07:31;15.30;99.90
63313;DHT22;49442;45.640;13.812;2023-05-17T07:09:56;15.40;99.90
63313;DHT22;49442;45.640;13.812;2023-05-17T07:12:22;15.40;99.90
63313;DHT22;49442;45.640;13.812;2023-05-17T07:14:48;15.50;99.90
63313;DHT22;49442;45.640;13.812;2023-05-17T07:17:13;15.50;99.90
63313;DHT22;49442;45.640;13.812;2023-05-17T07:19:39;15.60;99.90
63313;DHT22;49442;45.640;13.812;2023-05-17T07:22:05;15.60;99.90
63313;DHT22;49442;45.640;13.812;2023-05-17T07:24:31;15.70;99.90
63313;DHT22;49442;45.640;13.812;2023-05-17T07:26:56;15.70;99.90
63313;DHT22;49442;45.640;13.812;2023-05-17T07:29:22;15.70;99.90
63313;DHT22;49442;45.640;13.812;2023-05-17T07:31:48;15.80;99.90
63313;DHT22;49442;45.640;13.812;2023-05-17T07:34:14;15.80;99.90
63313;DHT22;49442;45.640;13.812;2023-05-17T07:36:40;15.80;99.90
63313;DHT22;49442;45.640;13.812;2023-05-17T07:39:05;15.80;99.90
63313;DHT22;49442;45.640;13.812;2023-05-17T07:41:31;15.80;99.90
63313;DHT22;49442;45.640;13.812;2023-05-17T07:43:58;15.80;99.90
63313;DHT22;49442;45.640;13.812;2023-05-17T07:46:24;15.80;99.90
63313;DHT22;49442;45.640;13.812;2023-05-17T07:48:50;15.80;99.90
63313;DHT22;49442;45.640;13.812;2023-05-17T07:51:16;15.80;99.90
63313;DHT22;49442;45.640;13.812;2023-05-17T07:53:41;15.70;99.90
63313;DHT22;49442;45.640;13.812;2023-05-17T07:56:07;15.70;99.90
63313;DHT22;49442;45.640;13.812;2023-05-17T07:58:33;15.70;99.90
63313;DHT22;49442;45.640;13.812;2023-05-17T08:01:00;15.70;99.90
63313;DHT22;49442;45.640;13.812;2023-05-17T08:03:26;15.60;99.90
63313;DHT22;49442;45.640;13.812;2023-05-17T08:05:52;15.60;99.90
63313;DHT22;49442;45.640;13.812;2023-05-17T08:08:18;15.60;99.90
63313;DHT22;49442;45.640;13.812;2023-05-17T08:10:45;15.70;99.90
63313;DHT22;49442;45.640;13.812;2023-05-17T08:13:11;15.70;99.90
63313;DHT22;49442;45.640;13.812;2023-05-17T08:15:37;15.70;99.90
63313;DHT22;49442;45.640;13.812;2023-05-17T08:18:02;15.70;99.90
63313;DHT22;49442;45.640;13.812;2023-05-17T08:20:28;15.60;99.90
63313;DHT22;49442;45.640;13.812;2023-05-17T08:22:54;15.70;99.90
63313;DHT22;49442;45.640;13.812;2023-05-17T08:25:19;15.60;99.90
63313;DHT22;49442;45.640;13.812;2023-05-17T08:27:45;15.60;99.90
63313;DHT22;49442;45.640;13.812;2023-05-17T08:30:11;15.70;99.90
63313;DHT22;49442;45.640;13.812;2023-05-17T08:32:37;15.70;99.90
63313;DHT22;49442;45.640;13.812;2023-05-17T08:35:03;15.70;99.90
63313;DHT22;49442;45.640;13.812;2023-05-17T08:37:29;15.80;99.90
63313;DHT22;49442;45.640;13.812;2023-05-17T08:39:55;15.70;99.90
63313;DHT22;49442;45.640;13.812;2023-05-17T08:42:22;15.70;99.90
63313;DHT22;49442;45.640;13.812;2023-05-17T08:44:54;15.70;99.90
63313;DHT22;49442;45.640;13.812;2023-05-17T08:47:20;15.70;99.90
63313;DHT22;49442;45.640;13.812;2023-05-17T08:49:56;15.70;99.90
63313;DHT22;49442;45.640;13.812;2023-05-17T08:52:28;15.70;99.90
63313;DHT22;49442;45.640;13.812;2023-05-17T08:54:54;15.80;99.90
63313;DHT22;49442;45.640;13.812;2023-05-17T08:57:21;15.80;99.90
63313;DHT22;49442;45.640;13.812;2023-05-17T08:59:49;15.80;99.90
63313;DHT22;49442;45.640;13.812;2023-05-17T09:02:16;15.90;99.90
63313;DHT22;49442;45.640;13.812;2023-05-17T09:04:43;15.90;99.90
63313;DHT22;49442;45.640;13.812;2023-05-17T09:07:08;16.00;99.90
63313;DHT22;49442;45.640;13.812;2023-05-17T09:09:34;16.00;99.90
63313;DHT22;49442;45.640;13.812;2023-05-17T09:12:00;16.00;99.90
63313;DHT22;49442;45.640;13.812;2023-05-17T09:14:37;16.00;99.90
63313;DHT22;49442;45.640;13.812;2023-05-17T09:17:03;16.00;99.90
63313;DHT22;49442;45.640;13.812;2023-05-17T09:19:29;16.10;99.90
63313;DHT22;49442;45.640;13.812;2023-05-17T09:21:59;16.10;99.90
63313;DHT22;49442;45.640;13.812;2023-05-17T09:24:29;16.10;99.90
63313;DHT22;49442;45.640;13.812;2023-05-17T09:27:01;16.10;99.90
63313;DHT22;49442;45.640;13.812;2023-05-17T09:29:30;16.10;99.90
63313;DHT22;49442;45.640;13.812;2023-05-17T09:32:08;16.10;99.90
63313;DHT22;49442;45.640;13.812;2023-05-17T09:34:37;16.10;99.90
63313;DHT22;49442;45.640;13.812;2023-05-17T09:37:08;16.10;99.90
63313;DHT22;49442;45.640;13.812;2023-05-17T09:39:36;16.20;99.90
63313;DHT22;49442;45.640;13.812;2023-05-17T09:42:03;16.20;99.90
63313;DHT22;49442;45.640;13.812;2023-05-17T09:44:29;16.20;99.90
63313;DHT22;49442;45.640;13.812;2023-05-17T09:46:56;16.40;99.90
63313;DHT22;49442;45.640;13.812;2023-05-17T09:49:26;16.40;99.90
63313;DHT22;49442;45.640;13.812;2023-05-17T09:51:53;16.60;99.90
63313;DHT22;49442;45.640;13.812;2023-05-17T09:54:19;16.70;99.90
63313;DHT22;49442;45.640;13.812;2023-05-17T09:56:52;16.80;99.90
63313;DHT22;49442;45.640;13.812;2023-05-17T09:59:19;16.90;99.90
63313;DHT22;49442;45.640;13.812;2023-05-17T10:01:47;17.00;99.90
63313;DHT22;49442;45.640;13.812;2023-05-17T10:04:14;17.00;99.90
63313;DHT22;49442;45.640;13.812;2023-05-17T10:06:45;17.10;99.90
63313;DHT22;49442;45.640;13.812;2023-05-17T10:09:15;17.10;99.90
63313;DHT22;49442;45.640;13.812;2023-05-17T10:11:45;17.20;99.80
63313;DHT22;49442;45.640;13.812;2023-05-17T10:14:25;17.20;99.90
63313;DHT22;49442;45.640;13.812;2023-05-17T10:16:52;17.10;99.90
63313;DHT22;49442;45.640;13.812;2023-05-17T10:19:19;17.10;99.50
63313;DHT22;49442;45.640;13.812;2023-05-17T10:21:49;17.20;99.90
63313;DHT22;49442;45.640;13.812;2023-05-17T10:24:15;17.50;99.00
63313;DHT22;49442;45.640;13.812;2023-05-17T10:26:41;17.70;99.40
63313;DHT22;49442;45.640;13.812;2023-05-17T10:29:10;17.80;98.40
63313;DHT22;49442;45.640;13.812;2023-05-17T10:31:36;17.90;99.00
63313;DHT22;49442;45.640;13.812;2023-05-17T10:34:03;18.10;98.90
63313;DHT22;49442;45.640;13.812;2023-05-17T10:36:30;18.20;98.30
63313;DHT22;49442;45.640;13.812;2023-05-17T10:38:56;18.20;97.80
63313;DHT22;49442;45.640;13.812;2023-05-17T10:41:26;18.20;98.10
63313;DHT22;49442;45.640;13.812;2023-05-17T10:43:55;18.00;97.90
63313;DHT22;49442;45.640;13.812;2023-05-17T10:46:22;17.90;98.20
63313;DHT22;49442;45.640;13.812;2023-05-17T10:48:50;17.80;98.50
63313;DHT22;49442;45.640;13.812;2023-05-17T10:51:22;17.80;98.80
63313;DHT22;49442;45.640;13.812;2023-05-17T10:54:08;17.70;98.80
63313;DHT22;49442;45.640;13.812;2023-05-17T10:56:39;17.80;99.70
63313;DHT22;49442;45.640;13.812;2023-05-17T11:02:07;17.80;99.00
63313;DHT22;49442;45.640;13.812;2023-05-17T11:04:39;17.70;98.70
63313;DHT22;49442;45.640;13.812;2023-05-17T11:10:10;17.70;98.70
63313;DHT22;49442;45.640;13.812;2023-05-17T11:12:40;17.60;98.50
63313;DHT22;49442;45.640;13.812;2023-05-17T11:15:11;17.60;98.70
63313;DHT22;49442;45.640;13.812;2023-05-17T11:22:58;17.30;98.50
63313;DHT22;49442;45.640;13.812;2023-05-17T11:25:27;17.30;99.20
63313;DHT22;49442;45.640;13.812;2023-05-17T11:27:54;17.30;98.60
63313;DHT22;49442;45.640;13.812;2023-05-17T11:30:29;17.40;99.60
63313;DHT22;49442;45.640;13.812;2023-05-17T11:33:01;17.60;99.40
63313;DHT22;49442;45.640;13.812;2023-05-17T11:35:38;17.90;99.50
63313;DHT22;49442;45.640;13.812;2023-05-17T11:38:17;18.30;99.90
63313;DHT22;49442;45.640;13.812;2023-05-17T11:40:45;18.50;98.80
63313;DHT22;49442;45.640;13.812;2023-05-17T11:43:18;18.60;98.90
63313;DHT22;49442;45.640;13.812;2023-05-17T11:45:47;18.70;99.50
63313;DHT22;49442;45.640;13.812;2023-05-17T11:48:15;18.70;99.20
63313;DHT22;49442;45.640;13.812;2023-05-17T11:50:43;18.60;99.00
63313;DHT22;49442;45.640;13.812;2023-05-17T11:53:09;18.40;98.90
63313;DHT22;49442;45.640;13.812;2023-05-17T11:55:40;18.20;98.30
63313;DHT22;49442;45.640;13.812;2023-05-17T11:58:11;18.00;98.90
63313;DHT22;49442;45.640;13.812;2023-05-17T12:00:38;17.80;98.40
63313;DHT22;49442;45.640;13.812;2023-05-17T12:03:23;17.60;99.00
63313;DHT22;49442;45.640;13.812;2023-05-17T12:06:00;17.60;99.00
63313;DHT22;49442;45.640;13.812;2023-05-17T12:08:27;17.60;99.40
63313;DHT22;49442;45.640;13.812;2023-05-17T12:10:53;17.70;99.40
63313;DHT22;49442;45.640;13.812;2023-05-17T12:13:21;17.80;99.30
63313;DHT22;49442;45.640;13.812;2023-05-17T12:16:06;17.80;99.40
63313;DHT22;49442;45.640;13.812;2023-05-17T12:18:47;17.70;99.50
63313;DHT22;49442;45.640;13.812;2023-05-17T12:21:14;17.70;99.30
63313;DHT22;49442;45.640;13.812;2023-05-17T12:23:41;17.70;99.70
63313;DHT22;49442;45.640;13.812;2023-05-17T12:26:20;17.70;99.90
63313;DHT22;49442;45.640;13.812;2023-05-17T12:28:57;17.70;99.40
63313;DHT22;49442;45.640;13.812;2023-05-17T12:31:39;17.70;99.90
63313;DHT22;49442;45.640;13.812;2023-05-17T12:34:07;17.80;99.80
63313;DHT22;49442;45.640;13.812;2023-05-17T12:36:37;17.80;99.90
63313;DHT22;49442;45.640;13.812;2023-05-17T12:39:03;17.80;99.60
63313;DHT22;49442;45.640;13.812;2023-05-17T12:41:34;17.80;98.90
63313;DHT22;49442;45.640;13.812;2023-05-17T12:44:00;17.70;99.70
63313;DHT22;49442;45.640;13.812;2023-05-17T12:46:27;17.80;99.40
63313;DHT22;49442;45.640;13.812;2023-05-17T12:48:53;17.80;99.60
63313;DHT22;49442;45.640;13.812;2023-05-17T12:51:21;17.90;99.90
63313;DHT22;49442;45.640;13.812;2023-05-17T12:53:51;17.90;98.80
63313;DHT22;49442;45.640;13.812;2023-05-17T12:56:21;17.90;99.20
63313;DHT22;49442;45.640;13.812;2023-05-17T12:59:10;18.10;99.30
63313;DHT22;49442;45.640;13.812;2023-05-17T13:01:47;18.20;98.90
63313;DHT22;49442;45.640;13.812;2023-05-17T13:04:14;18.20;99.10
63313;DHT22;49442;45.640;13.812;2023-05-17T13:06:57;18.10;99.20
63313;DHT22;49442;45.640;13.812;2023-05-17T13:09:25;18.10;99.20
63313;DHT22;49442;45.640;13.812;2023-05-17T13:11:56;18.00;98.30
63313;DHT22;49442;45.640;13.812;2023-05-17T13:14:55;18.00;98.30
63313;DHT22;49442;45.640;13.812;2023-05-17T13:17:25;18.00;98.70
63313;DHT22;49442;45.640;13.812;2023-05-17T13:19:54;18.10;98.80
63313;DHT22;49442;45.640;13.812;2023-05-17T13:22:21;18.20;98.50
63313;DHT22;49442;45.640;13.812;2023-05-17T13:24:49;18.30;99.00
63313;DHT22;49442;45.640;13.812;2023-05-17T13:27:15;18.20;99.00
63313;DHT22;49442;45.640;13.812;2023-05-17T13:29:42;18.40;98.70
63313;DHT22;49442;45.640;13.812;2023-05-17T13:32:10;18.60;98.70
63313;DHT22;49442;45.640;13.812;2023-05-17T13:34:36;18.60;98.40
63313;DHT22;49442;45.640;13.812;2023-05-17T13:37:02;18.50;98.10
63313;DHT22;49442;45.640;13.812;2023-05-17T13:39:28;18.40;98.20
63313;DHT22;49442;45.640;13.812;2023-05-17T13:41:54;18.40;98.40
63313;DHT22;49442;45.640;13.812;2023-05-17T13:44:19;18.50;98.70
63313;DHT22;49442;45.640;13.812;2023-05-17T13:46:45;18.50;98.70
63313;DHT22;49442;45.640;13.812;2023-05-17T13:49:11;18.40;98.80
63313;DHT22;49442;45.640;13.812;2023-05-17T13:51:37;18.00;98.90
63313;DHT22;49442;45.640;13.812;2023-05-17T13:54:06;17.90;99.40
63313;DHT22;49442;45.640;13.812;2023-05-17T13:56:32;17.60;99.20
63313;DHT22;49442;45.640;13.812;2023-05-17T13:58:58;17.50;99.70
63313;DHT22;49442;45.640;13.812;2023-05-17T14:01:25;17.60;99.90
63313;DHT22;49442;45.640;13.812;2023-05-17T14:03:51;17.60;99.90
63313;DHT22;49442;45.640;13.812;2023-05-17T14:06:16;17.60;99.70
63313;DHT22;49442;45.640;13.812;2023-05-17T14:08:42;17.70;99.50
63313;DHT22;49442;45.640;13.812;2023-05-17T14:11:10;17.80;99.80
63313;DHT22;49442;45.640;13.812;2023-05-17T14:13:36;17.80;99.10
63313;DHT22;49442;45.640;13.812;2023-05-17T14:16:02;17.90;98.40
63313;DHT22;49442;45.640;13.812;2023-05-17T14:18:28;18.00;99.10
63313;DHT22;49442;45.640;13.812;2023-05-17T14:20:55;18.00;98.00
63313;DHT22;49442;45.640;13.812;2023-05-17T14:23:21;18.00;97.70
63313;DHT22;49442;45.640;13.812;2023-05-17T14:25:47;18.00;96.90
63313;DHT22;49442;45.640;13.812;2023-05-17T14:28:13;18.00;97.00
63313;DHT22;49442;45.640;13.812;2023-05-17T14:30:41;18.00;97.60
63313;DHT22;49442;45.640;13.812;2023-05-17T14:33:07;18.00;97.80
63313;DHT22;49442;45.640;13.812;2023-05-17T14:35:32;18.00;97.00
63313;DHT22;49442;45.640;13.812;2023-05-17T14:37:58;17.90;97.50
63313;DHT22;49442;45.640;13.812;2023-05-17T14:40:24;17.90;97.50
63313;DHT22;49442;45.640;13.812;2023-05-17T14:42:49;18.00;97.90
63313;DHT22;49442;45.640;13.812;2023-05-17T14:45:15;18.10;96.80
63313;DHT22;49442;45.640;13.812;2023-05-17T14:47:41;18.10;97.10
63313;DHT22;49442;45.640;13.812;2023-05-17T14:50:07;18.10;96.80
63313;DHT22;49442;45.640;13.812;2023-05-17T14:52:33;18.10;97.10
63313;DHT22;49442;45.640;13.812;2023-05-17T14:54:59;18.20;96.80
63313;DHT22;49442;45.640;13.812;2023-05-17T14:57:25;18.20;96.20
63313;DHT22;49442;45.640;13.812;2023-05-17T14:59:50;18.20;96.20
63313;DHT22;49442;45.640;13.812;2023-05-17T15:02:16;18.20;96.50
63313;DHT22;49442;45.640;13.812;2023-05-17T15:04:42;18.20;96.50
63313;DHT22;49442;45.640;13.812;2023-05-17T15:07:08;18.20;96.70
63313;DHT22;49442;45.640;13.812;2023-05-17T15:09:39;18.10;96.00
63313;DHT22;49442;45.640;13.812;2023-05-17T15:12:08;18.10;95.70
63313;DHT22;49442;45.640;13.812;2023-05-17T15:14:34;18.10;96.00
63313;DHT22;49442;45.640;13.812;2023-05-17T15:17:00;18.10;96.00
63313;DHT22;49442;45.640;13.812;2023-05-17T15:19:26;18.10;96.20
63313;DHT22;49442;45.640;13.812;2023-05-17T15:21:52;18.10;95.80
63313;DHT22;49442;45.640;13.812;2023-05-17T15:24:18;18.10;95.90
63313;DHT22;49442;45.640;13.812;2023-05-17T15:26:44;18.10;96.10
63313;DHT22;49442;45.640;13.812;2023-05-17T15:29:09;18.10;96.60
63313;DHT22;49442;45.640;13.812;2023-05-17T15:31:36;18.10;96.10
63313;DHT22;49442;45.640;13.812;2023-05-17T15:34:01;18.00;96.10
63313;DHT22;49442;45.640;13.812;2023-05-17T15:36:27;18.00;96.80